Hellhole Canyon (1030) Station Data

Red Flag Warning: No
Fire Weather Zone: 250
SDGE Region: North East
Lat/Lon: 33.224/-116.924

Observations

Time Wind Speed/Gust Temp(F) RH Fuel Moist Fuel Temp(F) Dewpt(F) Tmax(F) Tmin(F) Accum Precip 10-min Precip SL Press(mb)
5/24 8:30am 28 2 G 5 71° 50% - - 52° 73.2° 58.6° - - 1011.0
5/24 8:20am 76 2 G 4 67° 63% - - 54° 73.2° 58.6° - - 1012.0
5/24 8:10am 203 2 G 5 65° 67% - - 54° 73.2° 58.6° - - 1012.0
5/24 8:00am 46 3 G 5 63° 73% - - 54° 73.2° 58.6° - - 1012.0
5/24 7:50am 232 3 G 5 62° 72% - - 53° 73.2° 58.6° - - 1013.0
5/24 7:40am 99 3 G 5 61° 73% - - 53° 73.2° 58.6° - - 1013.0
5/24 7:30am 9 4 G 8 59° 77% - - 52° 73.2° 58.6° - - 1013.0
5/24 7:20am 273 8 G 12 62° 67% - - 51° 73.2° 59° - - 1012.0
5/24 7:10am 32 2 G 5 64° 59% - - 50° 73.2° 61.3° - - 1012.0
5/24 7:00am 43 2 G 5 63° 62% - - 50° 73.2° 61.3° - - 1012.0
5/24 6:50am 106 1 G 3 62° 64% - - 50° 73.2° 61.3° - - 1012.0
5/24 6:40am 203 3 G 7 63° 62% - - 50° 73.2° 61.4° - - 1012.0
5/24 6:30am 296 7 G 9 67° 53% - - 49° 73.2° 63° - - 1011.0
5/24 6:20am 20 3 G 6 71° 44% - - 48° 72.8° 63.5° - - 1010.0
5/24 6:10am 49 4 G 5 68° 49% - - 48° 69.5° 63.5° - - 1010.0
5/24 6:00am 65 3 G 4 67° 52% - - 49° 69.5° 63.5° - - 1011.0
5/24 5:50am 74 2 G 3 67° 54% - - 49° 69.5° 63.5° - - 1011.0
5/24 5:40am 72 3 G 4 66° 55% - - 50° 69.5° 63.5° - - 1011.0
5/24 5:30am 58 4 G 5 65° 58% - - 50° 69.5° 63.5° - - 1011.0
5/24 5:20am 64 2 G 5 66° 56% - - 50° 69.5° 63.5° - - 1011.0
5/24 5:10am 47 6 G 8 65° 58% - - 50° 69.5° 63.5° - - 1011.0
5/24 5:00am 80 3 G 6 65° 59% - - 51° 69.5° 63.5° - - 1011.0
5/24 4:50am 62 2 G 3 65° 61% - - 51° 69.5° 63.5° - - 1012.0
5/24 4:40am 72 0 G 1 66° 59% - - 51° 69.5° 63.5° - - 1011.0
5/24 4:30am 325 2 G 3 66° 58% - - 51° 69.5° 63.5° - - 1012.0
5/24 4:20am 65 2 G 3 66° 59% - - 51° 69.5° 63.5° - - 1012.0
5/24 4:10am 53 2 G 3 67° 56% - - 51° 69.5° 63.5° - - 1011.0
5/24 4:00am 26 2 G 3 67° 56% - - 51° 69.5° 63.5° - - 1012.0
5/24 3:50am 59 0 G 1 68° 55% - - 51° 69.5° 63.5° - - 1012.0
5/24 3:40am 54 1 G 2 68° 55% - - 51° 69.5° 63.5° - - 1012.0
5/24 3:30am 55 1 G 2 67° 57% - - 51° 69.5° 63.5° - - 1012.0
5/24 3:20am 61 2 G 3 67° 57% - - 51° 69.5° 63.5° - - 1012.0
5/24 3:10am 31 2 G 4 67° 56% - - 51° 69.5° 63.5° - - 1012.0
5/24 3:00am 58 4 G 5 66° 59% - - 51° 69.5° 63.5° - - 1012.0
5/24 2:50am 86 1 G 4 66° 59% - - 51° 69.5° 63.5° - - 1012.0
5/24 2:40am 8 1 G 2 66° 60% - - 52° 69.5° 63.5° - - 1012.0
5/24 2:30am 327 2 G 3 65° 63% - - 52° 69.5° 63.5° - - 1012.0
5/24 2:20am 312 4 G 5 66° 60% - - 52° 69.5° 63.5° - - 1012.0
5/24 2:10am 305 3 G 4 69° 54% - - 52° 69.5° 63.5° - - 1012.0
5/24 2:00am 18 2 G 4 68° 57% - - 52° 69° 63.5° - - 1012.0
5/24 1:50am 60 2 G 4 67° 58% - - 52° 68.4° 63.5° - - 1012.0
5/24 1:40am 58 3 G 6 66° 60% - - 52° 68.4° 63.5° - - 1012.0
5/24 1:30am 131 3 G 5 66° 62% - - 52° 68.4° 63.5° - - 1012.0
5/24 1:20am 34 2 G 4 65° 65% - - 53° 68.4° 63.5° - - 1013.0
5/24 1:10am 313 2 G 6 65° 64% - - 53° 68.4° 64.4° - - 1013.0
5/24 1:00am 113 1 G 3 68° 58% - - 53° 68.4° 66.1° - - 1013.0
5/24 12:50am 65 3 G 4 67° 61% - - 53° 68.1° 66.1° - - 1013.0
5/24 12:40am 60 1 G 2 67° 61% - - 53° 68.1° 66.1° - - 1013.0
5/24 12:30am 63 2 G 2 67° 60% - - 53° 68.1° 66.4° - - 1014.0
5/24 12:20am 98 2 G 3 67° 59% - - 52° 68.1° 66.7° - - 1014.0
5/24 12:10am 71 2 G 3 67° 59% - - 53° 68.1° 66.8° - - 1013.0
5/24 12:00am 64 3 G 5 66° 62% - - 53° 88.5° 65.9° - - 1013.0
5/23 11:50pm 41 1 G 2 66° 64% - - 54° 88.5° 65.9° - - 1013.0
5/23 11:40pm 283 4 G 5 67° 63% - - 54° 88.5° 66.6° - - 1013.0
5/23 11:30pm 337 1 G 3 69° 57% - - 53° 88.5° 67.2° - - 1013.0
5/23 11:20pm 290 2 G 3 71° 53% - - 53° 88.5° 67.2° - - 1013.0
5/23 11:10pm 41 1 G 3 71° 52% - - 53° 88.5° 67.2° - - 1013.0
5/23 11:00pm 67 3 G 5 71° 51% - - 52° 88.5° 67.2° - - 1013.0
5/23 10:50pm 62 4 G 5 71° 50% - - 52° 88.5° 67.2° - - 1013.0
5/23 10:40pm 64 4 G 6 71° 50% - - 52° 88.5° 67.2° - - 1013.0
5/23 10:30pm 67 4 G 5 71° 52% - - 52° 88.5° 67.2° - - 1013.0
5/23 10:20pm 65 3 G 5 71° 52% - - 53° 88.5° 67.2° - - 1013.0
5/23 10:10pm 69 4 G 5 71° 53% - - 53° 88.5° 67.2° - - 1013.0
5/23 10:00pm 70 4 G 4 71° 54% - - 53° 88.5° 67.2° - - 1013.0
5/23 9:50pm 74 4 G 6 70° 56% - - 53° 88.5° 67.2° - - 1013.0
5/23 9:40pm 90 3 G 4 71° 55% - - 54° 88.5° 67.2° - - 1013.0
5/23 9:30pm 68 4 G 6 70° 56% - - 54° 88.5° 67.2° - - 1013.0
5/23 9:20pm 67 4 G 6 70° 58% - - 55° 88.5° 67.2° - - 1013.0
5/23 9:10pm 66 4 G 4 69° 61% - - 55° 88.5° 67.2° - - 1013.0
5/23 9:00pm 87 2 G 4 69° 61% - - 55° 88.5° 67.2° - - 1013.0
5/23 8:50pm 48 1 G 3 69° 60% - - 55° 88.5° 67.2° - - 1013.0
5/23 8:40pm 260 1 G 3 70° 60% - - 55° 88.5° 67.2° - - 1013.0
5/23 8:30pm 139 1 G 2 71° 58% - - 55° 88.5° 67.2° - - 1013.0
5/23 8:20pm 61 3 G 5 71° 58% - - 55° 88.5° 67.2° - - 1013.0
5/23 8:10pm 359 3 G 4 71° 55% - - 54° 88.5° 67.2° - - 1013.0
5/23 8:00pm 316 4 G 5 72° 53% - - 54° 88.5° 67.2° - - 1013.0
5/23 7:50pm 326 3 G 4 73° 52% - - 54° 88.5° 67.2° - - 1013.0
5/23 7:40pm 271 2 G 3 74° 49% - - 53° 88.5° 67.2° - - 1012.0
5/23 7:30pm 226 3 G 4 74° 47% - - 53° 88.5° 67.2° - - 1012.0
5/23 7:20pm 245 4 G 5 76° 49% - - 55° 88.5° 67.2° - - 1012.0
5/23 7:10pm 283 4 G 6 77° 49% - - 56° 88.5° 67.2° - - 1012.0
5/23 7:00pm 292 7 G 11 77° 47% - - 55° 88.5° 67.2° - - 1012.0
5/23 6:50pm 289 9 G 13 79° 43% - - 54° 88.5° 67.2° - - 1011.0
5/23 6:40pm 284 9 G 12 81° 36% - - 51° 88.5° 67.2° - - 1011.0
5/23 6:30pm 288 6 G 8 82° 28% - - 46° 88.5° 67.2° - - 1011.0
5/23 6:20pm 273 6 G 9 83° 26% - - 44° 88.5° 67.2° - - 1011.0
5/23 6:10pm 273 7 G 11 83° 25% - - 44° 88.5° 67.2° - - 1011.0
5/23 6:00pm 277 7 G 10 83° 25% - - 44° 88.5° 67.2° - - 1011.0
5/23 5:50pm 289 7 G 10 83° 24% - - 43° 88.5° 67.2° - - 1011.0
5/23 5:40pm 276 7 G 11 84° 24% - - 43° 88.5° 67.2° - - 1011.0
5/23 5:30pm 277 7 G 11 84° 24% - - 43° 88.5° 67.2° - - 1011.0
5/23 5:20pm 296 7 G 11 83° 24% - - 42° 88.5° 67.2° - - 1011.0
5/23 5:10pm 275 8 G 12 83° 22% - - 41° 88.5° 67.2° - - 1011.0
5/23 5:00pm 280 7 G 12 84° 24% - - 43° 88.5° 67.2° - - 1011.0
5/23 4:50pm 281 10 G 13 83° 25% - - 44° 88.5° 67.2° - - 1012.0
5/23 4:40pm 276 9 G 14 83° 28% - - 46° 88.5° 67.2° - - 1012.0
5/23 4:30pm 271 8 G 14 83° 30% - - 48° 88.5° 67.2° - - 1012.0
5/23 4:20pm 277 6 G 14 82° 32% - - 50° 88.5° 67.2° - - 1012.0
5/23 4:10pm 273 7 G 12 82° 33% - - 51° 88.5° 67.2° - - 1012.0
5/23 4:00pm 293 7 G 14 82° 35% - - 52° 88.5° 67.2° - - 1012.0
5/23 3:50pm 306 8 G 13 82° 36% - - 53° 88.5° 67.2° - - 1012.0
5/23 3:40pm 285 8 G 14 82° 38% - - 53° 88.5° 67.2° - - 1012.0
5/23 3:30pm 309 7 G 14 82° 41% - - 56° 88.5° 67.2° - - 1012.0
5/23 3:20pm 298 9 G 17 82° 44% - - 57° 88.5° 67.2° - - 1012.0
5/23 3:10pm 285 8 G 15 81° 46% - - 58° 88.5° 67.2° - - 1012.0
5/23 3:00pm 276 8 G 15 81° 48% - - 59° 88.5° 67.2° - - 1013.0
5/23 2:50pm 281 9 G 16 80° 49% - - 59° 88.5° 67.2° - - 1013.0
5/23 2:40pm 273 10 G 15 80° 49% - - 59° 88.5° 67.2° - - 1013.0
5/23 2:30pm 275 11 G 17 81° 48% - - 59° 88.5° 67.2° - - 1012.0
5/23 2:20pm 273 11 G 18 82° 47% - - 59° 88.5° 67.2° - - 1012.0
5/23 2:10pm 290 11 G 16 82° 46% - - 59° 88.5° 67.2° - - 1012.0
5/23 2:00pm 274 10 G 16 82° 45% - - 59° 88.5° 67.2° - - 1012.0
5/23 1:50pm 273 10 G 18 83° 45% - - 59° 88.5° 67.2° - - 1012.0
5/23 1:40pm 283 9 G 14 82° 46% - - 59° 88.5° 67.2° - - 1012.0
5/23 1:30pm 266 8 G 15 82° 47% - - 60° 88.5° 67.2° - - 1012.0
5/23 1:20pm 288 9 G 15 81° 47% - - 59° 88.5° 67.2° - - 1012.0
5/23 1:10pm 279 10 G 14 82° 47% - - 59° 88.5° 67.2° - - 1012.0
5/23 1:00pm 276 10 G 14 82° 45% - - 59° 88.5° 67.2° - - 1012.0
5/23 12:50pm 290 9 G 15 82° 44% - - 58° 88.5° 67.2° - - 1012.0
5/23 12:40pm 294 11 G 16 82° 44% - - 58° 88.5° 67.2° - - 1012.0
5/23 12:30pm 283 13 G 17 85° 36% - - 55° 88.5° 67.2° - - 1012.0
5/23 12:20pm 281 7 G 11 87° 28% - - 51° 88.5° 67.2° - - 1012.0
5/23 12:10pm 264 7 G 13 87° 29% - - 51° 88.5° 67.2° - - 1012.0
5/23 12:00pm 287 7 G 13 87° 27% - - 49° 88° 67.2° - - 1012.0
5/23 11:50am 300 7 G 11 86° 28% - - 50° 87.4° 67.2° - - 1012.0
5/23 11:40am 292 7 G 10 86° 30% - - 50° 87° 67.2° - - 1012.0
5/23 11:30am 289 5 G 9 85° 30% - - 50° 87° 67.2° - - 1012.0
5/23 11:20am 291 5 G 7 86° 31% - - 51° 87° 67.2° - - 1012.0
5/23 11:10am 283 6 G 9 85° 30% - - 51° 87° 67.2° - - 1012.0
5/23 11:00am 287 4 G 8 86° 30% - - 51° 87° 67.2° - - 1012.0
5/23 10:50am 279 5 G 8 85° 31% - - 51° 85.8° 67.2° - - 1012.0
5/23 10:40am 273 5 G 7 84° 32% - - 51° 85.1° 67.2° - - 1012.0
5/23 10:30am 273 4 G 7 84° 31% - - 50° 85.1° 67.2° - - 1012.0
5/23 10:20am 265 3 G 6 84° 32% - - 50° 84.5° 67.2° - - 1013.0
5/23 10:10am 280 3 G 7 84° 31% - - 50° 84.5° 67.2° - - 1013.0
5/23 10:00am 267 3 G 6 83° 30% - - 49° 83.9° 67.2° - - 1013.0
5/23 9:50am 260 2 G 4 82° 28% - - 46° 83.5° 67.2° - - 1013.0
5/23 9:40am 295 4 G 6 81° 33% - - 48° 83.3° 67.2° - - 1013.0
5/23 9:30am 270 4 G 6 82° 34% - - 50° 83.3° 67.2° - - 1013.0
5/23 9:20am 201 1 G 3 82° 28% - - 46° 83.3° 67.2° - - 1013.0
5/23 9:10am 129 1 G 3 80° 32% - - 48° 82° 67.2° - - 1013.0
5/23 9:00am 256 1 G 4 80° 34% - - 49° 81.1° 67.2° - - 1013.0
5/23 8:50am 112 1 G 2 78° 37% - - 49° 79° 67.2° - - 1013.0
5/23 8:40am 94 1 G 2 77° 33% - - 46° 77.9° 67.2° - - 1013.0
5/23 8:30am 327 1 G 4 73° 42% - - 49° 75.8° 67.2° - - 1014.0
5/23 8:20am 281 4 G 5 72° 46% - - 50° 75.8° 67.2° - - 1014.0
5/23 8:10am 289 1 G 5 75° 41% - - 50° 75.8° 67.2° - - 1013.0
5/23 8:00am 79 2 G 3 74° 39% - - 47° 74.6° 67.2° - - 1014.0
5/23 7:50am 60 2 G 3 73° 40% - - 47° 74.5° 67.2° - - 1014.0
5/23 7:40am 88 1 G 2 73° 38% - - 46° 74.5° 67.2° - - 1014.0
5/23 7:30am 86 2 G 4 71° 42% - - 47° 72.6° 67.2° - - 1014.0
5/23 7:20am 71 2 G 4 71° 41% - - 47° 72.4° 67.2° - - 1014.0
5/23 7:10am 60 1 G 2 71° 41% - - 46° 72.4° 67.2° - - 1014.0
5/23 7:00am 33 1 G 2 70° 39% - - 44° 72.4° 67.2° - - 1014.0
5/23 6:50am 335 0 G 1 70° 39% - - 44° 72.4° 67.2° - - 1014.0
5/23 6:40am 347 0 G 1 70° 39% - - 44° 72.4° 67.2° - - 1014.0
5/23 6:30am 360 0 G 2 70° 39% - - 44° 72.4° 67.2° - - 1014.0
5/23 6:20am 284 2 G 3 71° 36% - - 43° 72.4° 67.2° - - 1013.0
5/23 6:10am 3 2 G 3 70° 37% - - 43° 72.4° 67.2° - - 1014.0
5/23 6:00am 71 3 G 4 69° 36% - - 41° 72.4° 67.2° - - 1014.0